Sacramento, CA

10:13 AM PDT on August 28, 2014 (GMT -0700)
Natomas Park, CA | Change Station
CLOSE
Current Station
Personal Weather Station
Location: Sacramento, CA
Elevation: 40 ft
Nearby Weather Stations

Elev 40 ft 38.67 °N, 121.52 °W | Updated 2 seconds ago

Clear
Clear
73.3 °F
Feels Like 77 °F
N
3.0
Wind Variable Wind from SSW
Gusts 7.0 mph

Today
High -- | Low -- °F
--% Chance of Precip.
Yesterday
High -- | Low -- °F
Precip. -- in
6:31 AM 7:42 PM
Waxing Crescent, 9% visible
Pressure 30.02 in
Visibility 10.0 miles
Clouds Clear
Heat Index 77 °F
Dew Point 58 °F
Humidity 58%
Rainfall 0.00 in
Snow Depth Not available.
UV 5 out of 12
Pollen 8.50 out of 12
Ozone Good
PM2.5 Good
Flu Activity Not available.
METAR KSMF 281653Z VRB03KT 10SM CLR 21/13 A3002 RMK AO2 SLP165 T02110128

More Conditions Fewer Conditions

Pressure 30.02 in
Visibility 10.0 miles
Clouds Clear
Heat Index 77 °F
Dew Point 58 °F
Humidity 58%
Rainfall 0.00 in
Snow Depth Not available.
UV 5 out of 12
Pollen 8.50 out of 12
Ozone Good
PM2.5 Good
Flu Activity Not available.
METAR KSMF 281653Z VRB03KT 10SM CLR 21/13 A3002 RMK AO2 SLP165 T02110128

More Conditions Fewer Conditions

10-Day Weather Forecast

Almanac

Astronomy

Aug. 28, 2014 Rise Set
Actual Time 6:31 AM PDT 7:42 PM PDT
Civil Twilight 6:04 AM PDT 8:09 PM PDT
Nautical Twilight 5:31 AM PDT 8:42 PM PDT
Astronomical Twilight 4:57 AM PDT 9:16 PM PDT
Moon 9:26 AM PDT 9:11 PM PDT
Length of Visible Light 14h 05m
Length of Day
13h 10m
Tomorrow will be 2m 22s shorter.
Waxing Crescent, 9% of the Moon is Illuminated
Today
Waxing Crescent
Sep 2
First Quarter
Sep 8
Full
Sep 15
Last Quarter
Sep 24
New

Today's Extremes

State Highs State Lows

Community

WunderPhotos

Upload Photos

1,748,014 photos uploaded!

Nearby

Air Quality

  Air Quality AQ Index Pollutant
Yesterday Moderate
OZONE
Yesterday Good
PM10
Current Good
PM2.5
Current Good
OZONE
Thursday Unhealthy for Sensitive Groups
OZONE
Friday Moderate
OZONE
Saturday Moderate
OZONE
Sunday Moderate
OZONE
Monday Moderate
OZONE

Snow Depth

Station Depth Elevation
CSS Lab 2 in 6900 ft
Forestdale Creek 0 in 8029 ft
Blue Lakes 0 in 8000 ft
Monitor Pass 0 in 8350 ft
Sonora Pass 0 in 8800 ft

Earthquake Activity

City Distance Mag. Time & Date
Napa, California 53 miles 2.6 11:57 AM PDT
2014-08-27
The Geysers, California 71 miles 2.6 7:42 AM PDT
2014-08-27
Napa, California 53 miles 2.5 10:56 AM PDT
2014-08-26
Napa, California 53 miles 3.0 6:45 AM PDT
2014-08-26
Minimum magnitude displayed is 2.5.

Coastal Water Temperatures

Place Temperature
No Stations Reporting

Nearby Weather Stations